DCA weather

Ronald Reagan Washington National Airport
Washington, District of Columbia, United States

Public forecast

Using degrees Fahrenheit for public forecast. Weather courtesy of forecast.io.

METAR (pilot weather report)

Retrieved 2019/02/17 12:52 UTC (42 minutes ago):

KDCA 171252Z 07006KT 10SM FEW150 BKN200 01/M07 A3014 RMK AO2 SLP207 T00061067

TAF (pilot weather forecast)

Retrieved 2019/02/17 12:22 UTC (1 hour ago):

TAF KDCA 171120Z 1712/1818 VRB03KT P6SM SCT200 FM171500 VRB03KT P6SM BKN060 FM180000 14006KT 4SM -RA OVC015 FM180900 VRB03KT P6SM OVC010 FM181100 VRB03KT P6SM OVC030 FM181300 29005KT P6SM BKN035 FM181500 30009G17KT P6SM SCT040